Time;durP1;ratioP1;P1;durP2;ratioP2;P2;SDS_P1;SDS_P2;PMS_P1;PMS_P2;Temp;Humidity;BMP_temperature;BMP_pressure;BME280_temperature;BME280_humidity;BME280_pressure;Samples;Min_cycle;Max_cycle;Signal;HPM_P1;HPM_P2
2022/09/25 00:00:54;;;;;;;3.70;1.37;;;10.80;99.90;;;;;;5032716;28;20674;-79
2022/09/25 00:03:24;;;;;;;2.20;1.30;;;10.80;99.90;;;;;;5031104;28;20205;-79
2022/09/25 00:05:51;;;;;;;3.47;1.43;;;10.80;99.90;;;;;;5032023;28;20559;-79
2022/09/25 00:08:19;;;;;;;2.20;1.23;;;10.80;99.90;;;;;;5032090;28;20217;-79
2022/09/25 00:10:48;;;;;;;1.87;1.00;;;10.80;99.90;;;;;;5031382;28;20321;-79
2022/09/25 00:13:15;;;;;;;2.30;1.10;;;10.80;99.90;;;;;;5032012;28;20207;-79
2022/09/25 00:15:46;;;;;;;1.70;1.17;;;10.80;99.90;;;;;;5032146;28;20199;-79
2022/09/25 00:18:13;;;;;;;2.10;1.53;;;10.80;99.90;;;;;;5031033;28;20730;-79
2022/09/25 00:20:40;;;;;;;2.50;1.27;;;10.80;99.90;;;;;;5046154;28;20526;-79
2022/09/25 00:23:07;;;;;;;2.23;1.07;;;10.80;99.90;;;;;;5043655;28;20207;-79
2022/09/25 00:25:35;;;;;;;2.03;1.10;;;10.70;99.90;;;;;;5031314;28;20194;-79
2022/09/25 00:28:02;;;;;;;2.67;1.10;;;10.70;99.90;;;;;;5031419;28;20651;-79
2022/09/25 00:30:29;;;;;;;3.07;1.50;;;10.70;99.90;;;;;;5031896;28;20318;-79
2022/09/25 00:32:56;;;;;;;2.37;1.40;;;10.70;99.90;;;;;;5031243;28;20218;-80
2022/09/25 00:35:23;;;;;;;3.07;1.70;;;10.60;99.90;;;;;;5032030;28;20289;-79
2022/09/25 00:37:51;;;;;;;2.80;2.00;;;10.60;99.90;;;;;;5031716;28;20718;-79
2022/09/25 00:40:19;;;;;;;2.57;1.83;;;10.60;99.90;;;;;;5040057;28;20214;-79
2022/09/25 00:42:45;;;;;;;2.47;1.93;;;10.50;99.90;;;;;;5051728;28;20210;-79
2022/09/25 00:45:16;;;;;;;3.77;1.90;;;10.50;99.90;;;;;;5045153;28;20598;-80
2022/09/25 00:47:49;;;;;;;3.23;2.00;;;10.40;99.90;;;;;;5031786;28;20430;-77
2022/09/25 00:50:32;;;;;;;4.83;2.53;;;10.40;99.90;;;;;;5030406;28;20655;-78
2022/09/25 00:53:05;;;;;;;2.43;1.77;;;10.40;99.90;;;;;;5031058;28;20191;-80
2022/09/25 00:55:34;;;;;;;2.77;1.80;;;10.30;99.90;;;;;;5031858;28;20272;-78
2022/09/25 00:58:02;;;;;;;2.93;1.77;;;10.30;99.90;;;;;;5032144;28;20225;-78
2022/09/25 01:00:30;;;;;;;3.10;2.43;;;10.30;99.90;;;;;;5033845;28;20206;-78
2022/09/25 01:02:57;;;;;;;2.43;1.90;;;10.30;99.90;;;;;;5035283;28;20290;-78
2022/09/25 01:05:29;;;;;;;2.07;1.40;;;10.30;99.90;;;;;;5035279;28;20205;-78
2022/09/25 01:07:58;;;;;;;2.77;1.80;;;10.20;99.90;;;;;;5034830;28;20222;-78
2022/09/25 01:10:27;;;;;;;3.23;1.80;;;10.20;99.90;;;;;;5035117;28;20202;-77
2022/09/25 01:12:55;;;;;;;1.87;1.50;;;10.20;99.90;;;;;;5035658;28;20211;-78
2022/09/25 01:15:28;;;;;;;3.20;1.57;;;10.10;99.90;;;;;;5034632;28;20781;-77
2022/09/25 01:18:06;;;;;;;1.83;1.33;;;10.10;99.90;;;;;;5034886;28;20234;-78
2022/09/25 01:20:50;;;;;;;3.73;1.67;;;10.00;99.90;;;;;;5034163;28;20221;-79
2022/09/25 01:23:29;;;;;;;2.13;1.63;;;10.00;99.90;;;;;;5035469;28;20201;-78
2022/09/25 01:26:19;;;;;;;2.20;1.43;;;10.00;99.90;;;;;;5035006;28;20213;-78
2022/09/25 01:29:04;;;;;;;2.77;1.40;;;10.00;99.90;;;;;;5033988;28;20641;-78
2022/09/25 01:31:39;;;;;;;4.00;1.10;;;9.90;99.90;;;;;;5035315;28;20286;-79
2022/09/25 01:34:11;;;;;;;1.80;1.30;;;9.90;99.90;;;;;;5034947;28;20194;-79
2022/09/25 01:36:45;;;;;;;2.67;1.70;;;9.90;99.90;;;;;;5033975;28;20202;-78
2022/09/25 01:39:19;;;;;;;4.57;1.97;;;9.90;99.90;;;;;;5033988;28;20217;-78
2022/09/25 01:41:51;;;;;;;4.07;2.27;;;9.90;99.90;;;;;;5033879;28;20197;-78
2022/09/25 01:44:26;;;;;;;3.33;2.63;;;9.90;99.90;;;;;;5034351;28;20199;-78
2022/09/25 01:46:55;;;;;;;3.53;1.80;;;9.90;99.90;;;;;;5034799;28;20229;-78
2022/09/25 01:49:27;;;;;;;3.00;2.00;;;9.90;99.90;;;;;;5033809;28;20211;-78
2022/09/25 01:51:56;;;;;;;1.90;1.60;;;9.90;99.90;;;;;;5034701;28;20203;-78
2022/09/25 01:54:28;;;;;;;1.60;1.47;;;9.90;99.90;;;;;;5034385;28;20610;-79
2022/09/25 01:56:59;;;;;;;3.23;1.60;;;10.00;99.90;;;;;;5034058;28;20207;-80
2022/09/25 01:59:35;;;;;;;4.33;1.43;;;10.00;99.90;;;;;;5034443;28;20223;-78
2022/09/25 02:02:07;;;;;;;1.93;1.40;;;10.10;99.90;;;;;;5034523;28;20281;-79
2022/09/25 02:04:37;;;;;;;3.50;1.50;;;10.10;99.90;;;;;;5033692;28;20195;-77
2022/09/25 02:07:09;;;;;;;1.70;1.30;;;10.10;99.90;;;;;;5034400;28;20191;-79
2022/09/25 02:09:40;;;;;;;1.83;1.07;;;10.20;99.90;;;;;;5034757;28;20201;-77
2022/09/25 02:12:12;;;;;;;1.93;1.50;;;10.20;99.90;;;;;;5033340;28;20629;-79
2022/09/25 02:14:45;;;;;;;2.13;1.20;;;10.20;99.90;;;;;;5033384;28;20199;-78
2022/09/25 02:20:30;;;;;;;2.00;1.00;;;10.20;99.90;;;;;;5033600;28;20250;-78
2022/09/25 02:22:54;;;;;;;2.40;1.10;;;10.30;99.90;;;;;;5031383;28;20258;-80
2022/09/25 02:25:27;;;;;;;2.07;0.80;;;10.30;99.90;;;;;;5053264;28;20618;-79
2022/09/25 02:27:54;;;;;;;2.60;1.00;;;10.40;99.90;;;;;;5040737;28;20310;-78
2022/09/25 02:30:22;;;;;;;5.13;1.30;;;10.40;99.90;;;;;;5034394;28;20225;-79
2022/09/25 02:32:49;;;;;;;3.90;1.00;;;10.40;99.90;;;;;;5033047;28;20203;-79
2022/09/25 02:35:16;;;;;;;2.23;1.33;;;10.50;99.90;;;;;;5033912;28;20213;-79
2022/09/25 02:37:43;;;;;;;2.90;1.10;;;10.50;99.90;;;;;;5033652;28;20213;-79
2022/09/25 02:40:10;;;;;;;3.07;1.43;;;10.50;99.90;;;;;;5033696;28;20561;-80
2022/09/25 02:42:44;;;;;;;1.90;1.00;;;10.60;99.90;;;;;;5033731;28;20202;-80
2022/09/25 02:45:21;;;;;;;1.87;1.00;;;10.60;99.90;;;;;;5033359;28;20191;-79
2022/09/25 02:47:58;;;;;;;1.67;1.07;;;10.60;99.90;;;;;;5033696;28;20624;-80
2022/09/25 02:50:29;;;;;;;2.40;0.80;;;10.60;99.90;;;;;;5033640;28;20237;-79
2022/09/25 02:53:05;;;;;;;1.97;1.00;;;10.60;99.90;;;;;;5033147;28;20285;-79
2022/09/25 02:55:38;;;;;;;4.27;1.10;;;10.70;99.90;;;;;;5039187;28;20198;-78
2022/09/25 02:58:12;;;;;;;2.73;1.17;;;10.70;99.90;;;;;;5053475;28;20198;-76
2022/09/25 03:00:40;;;;;;;2.80;1.10;;;10.70;99.90;;;;;;5052856;28;20190;-79
2022/09/25 03:03:12;;;;;;;2.47;1.10;;;10.70;99.90;;;;;;5050795;28;20198;-79
2022/09/25 03:05:42;;;;;;;2.20;0.90;;;10.70;99.90;;;;;;5033467;28;20591;-80
2022/09/25 03:10:53;;;;;;;2.20;1.20;;;10.70;99.90;;;;;;5033327;28;20599;-77
2022/09/25 03:13:25;;;;;;;3.37;1.17;;;10.80;99.90;;;;;;5032225;28;20207;-79
2022/09/25 03:15:57;;;;;;;3.20;1.10;;;10.80;99.90;;;;;;5032664;28;20826;-77
2022/09/25 03:18:27;;;;;;;1.70;1.00;;;10.80;99.90;;;;;;5032317;28;20535;-80
2022/09/25 03:20:54;;;;;;;4.43;0.80;;;10.80;99.90;;;;;;5032129;28;20617;-76
2022/09/25 03:23:21;;;;;;;0.93;0.80;;;10.80;99.90;;;;;;5032428;28;20202;-76
2022/09/25 03:25:48;;;;;;;1.70;1.00;;;10.80;99.90;;;;;;5032596;28;20206;-78
2022/09/25 03:28:15;;;;;;;1.27;0.83;;;10.80;99.90;;;;;;5032226;28;20221;-76
2022/09/25 03:30:43;;;;;;;1.33;0.80;;;10.80;99.90;;;;;;5032597;28;20285;-76
2022/09/25 03:33:11;;;;;;;1.33;1.03;;;10.80;99.90;;;;;;5032252;28;20653;-76
2022/09/25 03:35:40;;;;;;;1.67;1.00;;;10.80;99.90;;;;;;5031688;28;20257;-76
2022/09/25 03:38:07;;;;;;;2.00;1.00;;;10.80;99.90;;;;;;5032574;28;20209;-78
2022/09/25 03:40:34;;;;;;;2.10;0.90;;;10.80;99.90;;;;;;5032107;28;20218;-79
2022/09/25 03:43:01;;;;;;;1.23;0.80;;;10.80;99.90;;;;;;5032168;28;20202;-77
2022/09/25 03:45:28;;;;;;;4.20;1.13;;;10.90;99.90;;;;;;5032305;28;20290;-77
2022/09/25 03:47:55;;;;;;;2.13;0.97;;;10.90;99.90;;;;;;5031858;28;20702;-78
2022/09/25 03:50:22;;;;;;;1.73;1.07;;;10.90;99.90;;;;;;5031919;28;20373;-80
2022/09/25 03:52:50;;;;;;;0.97;0.87;;;10.90;99.90;;;;;;5032564;28;20503;-80
2022/09/25 03:55:18;;;;;;;1.13;0.80;;;10.90;99.90;;;;;;5032147;28;20301;-79
2022/09/25 03:57:45;;;;;;;0.93;0.70;;;10.80;99.90;;;;;;5032380;28;20198;-80
2022/09/25 04:00:13;;;;;;;0.80;0.80;;;10.80;99.90;;;;;;5032063;28;20265;-80
2022/09/25 04:02:40;;;;;;;1.37;1.10;;;10.80;99.90;;;;;;5031553;28;20209;-77
2022/09/25 04:05:08;;;;;;;1.80;0.83;;;10.80;99.90;;;;;;5032573;28;20198;-77
2022/09/25 04:07:35;;;;;;;0.90;0.90;;;10.80;99.90;;;;;;5032425;28;20205;-79
2022/09/25 04:10:04;;;;;;;1.10;0.90;;;10.80;99.90;;;;;;5031971;28;20209;-80
2022/09/25 04:12:31;;;;;;;1.60;0.97;;;10.80;99.90;;;;;;5032383;28;20199;-80
2022/09/25 04:14:58;;;;;;;2.47;1.00;;;10.80;99.90;;;;;;5032055;28;20218;-80
2022/09/25 04:17:25;;;;;;;0.77;0.77;;;10.90;99.90;;;;;;5031409;28;20226;-80
2022/09/25 04:19:52;;;;;;;1.47;0.70;;;10.90;99.90;;;;;;5031951;28;20228;-79
2022/09/25 04:22:19;;;;;;;1.17;0.93;;;10.90;99.90;;;;;;5032120;28;20630;-79
2022/09/25 04:24:48;;;;;;;0.67;0.67;;;10.90;99.90;;;;;;5032117;28;20256;-80
2022/09/25 04:27:18;;;;;;;1.47;1.03;;;10.90;99.90;;;;;;5032010;28;20213;-81
2022/09/25 04:29:44;;;;;;;1.23;0.70;;;10.90;99.90;;;;;;5038232;28;20208;-80
2022/09/25 04:34:57;;;;;;;3.67;1.00;;;10.90;99.90;;;;;;5037012;28;20209;-82
2022/09/25 04:37:25;;;;;;;1.87;0.90;;;10.90;99.90;;;;;;5036769;28;20213;-81
2022/09/25 04:39:52;;;;;;;1.27;0.90;;;11.00;99.90;;;;;;5035832;28;20260;-79
2022/09/25 04:42:23;;;;;;;1.77;0.80;;;10.90;99.90;;;;;;5036208;28;20290;-80
2022/09/25 04:44:52;;;;;;;2.00;0.80;;;11.00;99.90;;;;;;5036215;28;20195;-81
2022/09/25 04:47:19;;;;;;;1.37;0.80;;;11.00;99.90;;;;;;5036149;28;20517;-82
2022/09/25 04:49:46;;;;;;;1.50;0.70;;;11.00;99.90;;;;;;5036659;28;20300;-81
2022/09/25 04:52:14;;;;;;;2.40;1.57;;;11.00;99.90;;;;;;5036122;28;20688;-80
2022/09/25 04:54:42;;;;;;;1.77;1.00;;;11.00;99.90;;;;;;5037401;28;20198;-80
2022/09/25 04:57:09;;;;;;;2.17;0.90;;;11.00;99.90;;;;;;5056302;28;20204;-81
2022/09/25 04:59:38;;;;;;;1.67;0.90;;;11.00;99.90;;;;;;5050076;28;20221;-82
2022/09/25 05:02:05;;;;;;;1.00;0.70;;;11.00;99.90;;;;;;5035497;28;20241;-78
2022/09/25 05:04:32;;;;;;;2.63;0.90;;;11.00;99.90;;;;;;5035496;28;20210;-81
2022/09/25 05:06:59;;;;;;;3.20;0.93;;;11.00;99.90;;;;;;5034902;28;20205;-77
2022/09/25 05:09:26;;;;;;;0.80;0.77;;;11.00;99.90;;;;;;5035476;28;20281;-77
2022/09/25 05:11:52;;;;;;;1.83;0.80;;;11.00;99.90;;;;;;5035585;28;20204;-77
2022/09/25 05:14:19;;;;;;;1.53;0.83;;;11.00;99.90;;;;;;5034485;28;20673;-78
2022/09/25 05:16:48;;;;;;;1.57;0.80;;;11.00;99.90;;;;;;5035236;28;20207;-78
2022/09/25 05:19:15;;;;;;;0.83;0.80;;;11.00;99.90;;;;;;5034859;28;20222;-81
2022/09/25 05:21:42;;;;;;;1.37;0.90;;;11.00;99.90;;;;;;5035134;28;20283;-78
2022/09/25 05:24:12;;;;;;;1.87;1.17;;;11.00;99.90;;;;;;5035050;28;20204;-77
2022/09/25 05:26:39;;;;;;;2.13;0.70;;;11.00;99.90;;;;;;5035230;28;20202;-77
2022/09/25 05:29:07;;;;;;;1.90;0.77;;;11.00;99.90;;;;;;5034849;28;20218;-80
2022/09/25 05:31:34;;;;;;;2.27;0.97;;;11.00;99.90;;;;;;5035300;28;20203;-81
2022/09/25 05:34:02;;;;;;;1.60;0.90;;;10.90;99.90;;;;;;5035075;28;20209;-81
2022/09/25 05:36:29;;;;;;;1.00;0.90;;;10.90;99.90;;;;;;5035468;28;20199;-80
2022/09/25 05:38:56;;;;;;;1.37;0.80;;;10.80;99.90;;;;;;5034938;28;20215;-77
2022/09/25 05:41:23;;;;;;;2.10;0.80;;;10.80;99.90;;;;;;5034191;28;20214;-78
2022/09/25 05:43:50;;;;;;;1.90;0.97;;;10.80;99.90;;;;;;5035089;28;20202;-77
2022/09/25 05:46:17;;;;;;;1.50;0.77;;;10.80;99.90;;;;;;5032984;28;20234;-76
2022/09/25 05:48:44;;;;;;;1.83;0.90;;;10.80;99.90;;;;;;5033984;28;20187;-78
2022/09/25 05:51:12;;;;;;;1.77;0.80;;;10.70;99.90;;;;;;5034308;28;20298;-76
2022/09/25 05:53:39;;;;;;;1.00;0.80;;;10.70;99.90;;;;;;5034848;28;20498;-78
2022/09/25 05:56:06;;;;;;;1.80;0.90;;;10.70;99.90;;;;;;5047747;28;20588;-77
2022/09/25 05:58:35;;;;;;;2.80;0.97;;;10.70;99.90;;;;;;5054463;28;20238;-77
2022/09/25 06:01:03;;;;;;;2.73;1.10;;;10.70;99.90;;;;;;5039556;28;20237;-78
2022/09/25 06:03:30;;;;;;;1.30;1.00;;;10.70;99.90;;;;;;5033251;28;20206;-77
2022/09/25 06:05:57;;;;;;;1.73;1.10;;;10.70;99.90;;;;;;5034070;28;20205;-77
2022/09/25 06:08:26;;;;;;;1.47;0.90;;;10.80;99.90;;;;;;5034115;28;20290;-78
2022/09/25 06:10:54;;;;;;;1.90;0.90;;;10.80;99.90;;;;;;5033621;28;20195;-78
2022/09/25 06:13:23;;;;;;;2.43;1.10;;;10.80;99.90;;;;;;5034257;28;20201;-78
2022/09/25 06:15:51;;;;;;;1.60;1.03;;;10.80;99.90;;;;;;5034063;28;20215;-82
2022/09/25 06:18:19;;;;;;;2.17;1.20;;;10.80;99.90;;;;;;5033467;28;20231;-78
2022/09/25 06:20:47;;;;;;;1.47;1.00;;;10.80;99.90;;;;;;5034360;28;20547;-81
2022/09/25 06:23:14;;;;;;;3.37;1.50;;;10.80;99.90;;;;;;5045396;28;20205;-78
2022/09/25 06:25:42;;;;;;;2.87;1.50;;;10.90;99.90;;;;;;5054136;28;20194;-77
2022/09/25 06:28:11;;;;;;;2.23;1.50;;;10.90;99.90;;;;;;5053641;28;20827;-78
2022/09/25 06:30:38;;;;;;;1.43;1.00;;;11.00;99.90;;;;;;5040245;28;20199;-79
2022/09/25 06:33:08;;;;;;;6.80;1.73;;;11.00;99.90;;;;;;5033667;28;20202;-76
2022/09/25 06:35:35;;;;;;;5.37;1.70;;;11.20;99.90;;;;;;5033851;28;20213;-77
2022/09/25 06:38:03;;;;;;;6.50;1.97;;;11.20;99.90;;;;;;5041657;28;20214;-78
2022/09/25 06:40:31;;;;;;;5.47;1.87;;;11.40;99.90;;;;;;5049841;28;20304;-78
2022/09/25 06:43:00;;;;;;;7.70;1.83;;;11.40;99.90;;;;;;5052526;28;20292;-78
2022/09/25 06:45:30;;;;;;;5.23;1.60;;;11.50;99.90;;;;;;5048625;28;20221;-84
2022/09/25 06:48:01;;;;;;;6.67;1.60;;;11.50;99.90;;;;;;5040570;28;20201;-79
2022/09/25 06:50:32;;;;;;;3.30;1.87;;;11.50;99.90;;;;;;5035186;28;20190;-85
2022/09/25 06:52:59;;;;;;;3.17;1.27;;;11.60;99.90;;;;;;5034639;28;20227;-85
2022/09/25 06:55:26;;;;;;;3.30;1.17;;;11.60;99.90;;;;;;5035495;28;20472;-82
2022/09/25 06:57:53;;;;;;;2.40;0.90;;;11.60;99.90;;;;;;5035151;28;20282;-85
2022/09/25 07:00:21;;;;;;;3.63;1.00;;;11.60;99.90;;;;;;5039647;28;20312;-84
2022/09/25 07:05:33;;;;;;;1.40;1.00;;;11.70;99.90;;;;;;5050087;28;20213;-82
2022/09/25 07:08:00;;;;;;;2.40;1.23;;;11.80;99.90;;;;;;5054346;28;20572;-84
2022/09/25 07:10:27;;;;;;;3.10;1.00;;;11.80;99.90;;;;;;5048622;28;20236;-84
2022/09/25 07:12:54;;;;;;;2.03;1.23;;;11.90;99.90;;;;;;5054931;28;20297;-86
2022/09/25 07:15:22;;;;;;;3.60;1.40;;;12.00;99.90;;;;;;5048798;28;20222;-85
2022/09/25 07:17:49;;;;;;;6.70;1.20;;;12.00;99.90;;;;;;5049616;28;20238;-84
2022/09/25 07:20:17;;;;;;;4.90;1.70;;;12.10;99.90;;;;;;5054351;28;20248;-83
2022/09/25 07:22:44;;;;;;;4.10;1.40;;;12.10;99.90;;;;;;5062710;22;20260;-85
2022/09/25 07:25:12;;;;;;;2.57;0.93;;;12.20;99.90;;;;;;5054543;28;20216;-84
2022/09/25 07:27:39;;;;;;;3.50;1.43;;;12.20;99.90;;;;;;5049363;28;20226;-84
2022/09/25 07:30:08;;;;;;;2.50;1.40;;;12.20;99.90;;;;;;5034515;28;20390;-82
2022/09/25 07:32:36;;;;;;;2.03;1.10;;;12.30;99.90;;;;;;5025583;28;20210;-84
2022/09/25 07:35:03;;;;;;;2.03;1.30;;;12.30;99.90;;;;;;5015238;28;20195;-83
2022/09/25 07:37:31;;;;;;;3.23;1.10;;;12.30;99.90;;;;;;5034379;28;20256;-82
2022/09/25 07:39:58;;;;;;;2.87;1.13;;;12.40;99.90;;;;;;5034246;28;20222;-82
2022/09/25 07:42:24;;;;;;;1.93;1.00;;;12.50;99.90;;;;;;5033182;28;20283;-85
2022/09/25 07:44:51;;;;;;;3.00;1.10;;;12.50;99.90;;;;;;5033212;28;20202;-80
2022/09/25 07:47:18;;;;;;;2.63;1.17;;;12.60;99.90;;;;;;5013773;28;20211;-77
2022/09/25 07:49:46;;;;;;;3.50;1.07;;;12.60;99.90;;;;;;5012330;28;20282;-77
2022/09/25 07:52:13;;;;;;;2.10;0.90;;;12.70;99.90;;;;;;5013156;28;20249;-78
2022/09/25 07:54:41;;;;;;;2.37;1.33;;;12.70;99.90;;;;;;5012034;28;20294;-78
2022/09/25 07:57:09;;;;;;;3.47;1.10;;;12.80;99.90;;;;;;5012447;28;20520;-81
2022/09/25 07:59:35;;;;;;;2.60;1.10;;;12.80;99.90;;;;;;5012727;28;20253;-79
2022/09/25 08:02:03;;;;;;;3.63;1.00;;;12.90;99.90;;;;;;5012167;28;20223;-78
2022/09/25 08:04:30;;;;;;;2.10;1.10;;;13.00;99.90;;;;;;5019989;28;20213;-79
2022/09/25 08:06:59;;;;;;;3.80;1.00;;;13.10;99.90;;;;;;5032737;28;20241;-78
2022/09/25 08:09:27;;;;;;;1.70;1.10;;;13.20;99.90;;;;;;5031401;28;20221;-77
2022/09/25 08:11:53;;;;;;;3.10;0.90;;;13.30;99.90;;;;;;5031870;28;20313;-79
2022/09/25 08:14:21;;;;;;;2.87;1.00;;;13.40;99.90;;;;;;5032155;28;20202;-78
2022/09/25 08:16:48;;;;;;;2.23;1.13;;;13.50;99.90;;;;;;5012005;28;20203;-80
2022/09/25 08:19:17;;;;;;;4.10;1.00;;;13.60;99.90;;;;;;5018633;28;20209;-83
2022/09/25 08:21:44;;;;;;;1.80;0.83;;;13.70;99.90;;;;;;5024930;28;20223;-87
2022/09/25 08:24:12;;;;;;;2.93;1.00;;;13.80;99.90;;;;;;5034518;28;20253;-88
2022/09/25 08:26:39;;;;;;;6.93;1.27;;;13.90;99.90;;;;;;5034630;28;20233;-88
2022/09/25 08:29:07;;;;;;;2.03;0.80;;;14.00;99.90;;;;;;5034711;28;20309;-88
2022/09/25 08:31:34;;;;;;;3.43;1.00;;;14.10;99.90;;;;;;5033823;28;20194;-87
2022/09/25 08:34:01;;;;;;;1.60;0.67;;;14.20;99.90;;;;;;5034698;28;20198;-89
2022/09/25 08:36:28;;;;;;;2.40;0.93;;;14.30;99.90;;;;;;5034289;28;20209;-89
2022/09/25 08:38:57;;;;;;;0.97;0.70;;;14.30;99.90;;;;;;5033159;28;20274;-88
2022/09/25 08:41:30;;;;;;;1.53;0.60;;;14.40;99.90;;;;;;5033933;28;20622;-90
2022/09/25 08:44:00;;;;;;;2.03;0.70;;;14.40;99.90;;;;;;5034613;28;20737;-88
2022/09/25 08:49:27;;;;;;;1.80;0.50;;;14.60;99.90;;;;;;5033993;28;20593;-86
2022/09/25 08:51:59;;;;;;;2.90;0.87;;;14.60;99.90;;;;;;5034102;28;20289;-89
2022/09/25 08:54:28;;;;;;;2.80;0.80;;;14.70;99.90;;;;;;5034015;28;20198;-90
2022/09/25 08:57:00;;;;;;;1.77;0.70;;;14.80;99.90;;;;;;5034554;28;20293;-91
2022/09/25 08:59:32;;;;;;;2.42;0.70;;;14.80;99.90;;;;;;5022651;28;20226;-93
2022/09/25 09:02:01;;;;;;;3.15;0.50;;;14.90;99.90;;;;;;5014808;28;20218;-92
2022/09/25 09:04:31;;;;;;;1.05;0.50;;;15.00;99.90;;;;;;5014690;28;20289;-89
2022/09/25 09:07:04;;;;;;;3.50;0.77;;;15.00;99.90;;;;;;5017040;28;20191;-91
2022/09/25 09:09:37;;;;;;;1.20;0.80;;;15.00;99.90;;;;;;5034737;28;20194;-89
2022/09/25 09:12:11;;;;;;;4.20;1.07;;;15.10;99.90;;;;;;5034017;28;20195;-86
2022/09/25 09:14:45;;;;;;;1.67;0.53;;;15.10;99.90;;;;;;5022122;28;20198;-93
2022/09/25 09:17:17;;;;;;;1.00;0.50;;;15.20;99.90;;;;;;5014809;28;20273;-90
2022/09/25 09:19:48;;;;;;;1.02;0.50;;;15.30;99.90;;;;;;5030846;28;20607;-93
2022/09/25 09:22:20;;;;;;;2.22;0.82;;;15.30;99.90;;;;;;5037749;28;20225;-92
2022/09/25 09:24:55;;;;;;;2.50;0.80;;;15.40;99.90;;;;;;5038057;28;20191;-83
2022/09/25 09:27:37;;;;;;;2.63;0.73;;;15.50;99.90;;;;;;5030828;28;20230;-90
2022/09/25 09:30:15;;;;;;;3.20;0.68;;;15.70;99.90;;;;;;5017650;28;20627;-90
2022/09/25 09:33:14;;;;;;;1.17;0.55;;;15.90;99.90;;;;;;5017345;28;20192;-90
2022/09/25 09:35:52;;;;;;;1.63;0.55;;;16.00;99.90;;;;;;5025744;28;20202;-89
2022/09/25 09:38:27;;;;;;;2.22;0.60;;;16.30;99.90;;;;;;5037060;28;20198;-88
2022/09/25 09:41:14;;;;;;;1.75;0.60;;;16.50;99.90;;;;;;5016916;28;20289;-89
2022/09/25 09:44:02;;;;;;;1.98;0.52;;;16.50;99.90;;;;;;5017822;28;20289;-92
2022/09/25 09:46:39;;;;;;;1.20;0.45;;;16.50;99.90;;;;;;5026136;28;20274;-91
2022/09/25 09:49:13;;;;;;;1.95;0.50;;;16.40;99.90;;;;;;5033441;28;20204;-83
2022/09/25 09:51:44;;;;;;;1.30;0.50;;;16.30;99.90;;;;;;5035658;28;20545;-90
2022/09/25 09:54:16;;;;;;;2.17;0.57;;;16.20;99.90;;;;;;5034672;28;20636;-83
2022/09/25 09:56:48;;;;;;;3.58;0.60;;;16.20;99.90;;;;;;5035876;28;20207;-90
2022/09/25 09:59:19;;;;;;;2.00;0.77;;;16.10;93.90;;;;;;5036118;28;20252;-89
2022/09/25 10:01:54;;;;;;;1.83;0.50;;;16.10;93.50;;;;;;5044957;28;20225;-79
2022/09/25 10:04:26;;;;;;;1.33;0.45;;;16.10;99.00;;;;;;5033699;28;20216;-77
2022/09/25 10:07:01;;;;;;;1.90;0.60;;;16.00;77.40;;;;;;5034021;28;20221;-77
2022/09/25 10:09:28;;;;;;;2.25;0.60;;;15.90;46.70;;;;;;5015716;28;20294;-81
2022/09/25 10:12:01;;;;;;;2.20;0.60;;;15.80;41.00;;;;;;5030161;28;20198;-79
2022/09/25 10:14:39;;;;;;;2.05;0.60;;;15.70;50.10;;;;;;5031365;28;20222;-78
2022/09/25 10:17:09;;;;;;;0.65;0.50;;;15.70;62.30;;;;;;5030303;28;20206;-78
2022/09/25 10:19:47;;;;;;;2.53;1.00;;;15.70;93.70;;;;;;5033839;28;20187;-77
2022/09/25 10:22:17;;;;;;;2.63;0.70;;;16.00;97.30;;;;;;5030850;28;20253;-78
2022/09/25 10:24:54;;;;;;;3.28;0.70;;;16.20;18.30;;;;;;5031530;28;20191;-75
2022/09/25 10:27:26;;;;;;;2.17;0.70;;;16.60;1.00;;;;;;5034102;28;20257;-76
2022/09/25 10:30:12;;;;;;;1.42;0.40;;;16.90;1.00;;;;;;5033034;28;20195;-77
2022/09/25 10:32:44;;;;;;;2.63;0.40;;;17.30;1.00;;;;;;5031966;28;20221;-78
2022/09/25 10:35:15;;;;;;;1.25;0.40;;;17.50;1.00;;;;;;5033851;28;20245;-78
2022/09/25 10:37:43;;;;;;;2.10;0.70;;;17.50;99.90;;;;;;5032868;28;20195;-79
2022/09/25 10:40:24;;;;;;;0.82;0.50;;;17.70;1.00;;;;;;5032313;28;20195;-78
2022/09/25 10:43:03;;;;;;;3.67;0.80;;;17.80;1.00;;;;;;5030835;28;20692;-78
2022/09/25 10:45:34;;;;;;;4.03;0.60;;;18.00;1.00;;;;;;5033317;28;20276;-79
2022/09/25 10:51:06;;;;;;;1.17;0.57;;;18.10;99.90;;;;;;5029474;28;20197;-77
2022/09/25 10:53:33;;;;;;;1.02;0.50;;;18.20;1.00;;;;;;5033600;28;20221;-79
2022/09/25 10:56:04;;;;;;;2.97;0.80;;;18.10;1.00;;;;;;5032878;28;20226;-84
2022/09/25 10:58:36;;;;;;;3.10;0.50;;;17.90;1.00;;;;;;5032995;28;20599;-78
2022/09/25 11:01:12;;;;;;;3.38;1.05;;;17.60;5.50;;;;;;5032924;28;20539;-77
2022/09/25 11:03:45;;;;;;;3.33;0.85;;;17.30;21.30;;;;;;5033823;28;20206;-81
2022/09/25 11:06:20;;;;;;;1.23;0.50;;;16.80;92.50;;;;;;5029985;28;20253;-79
2022/09/25 11:08:50;;;;;;;4.03;0.65;;;16.50;99.90;;;;;;5034102;28;20202;-81
2022/09/25 11:11:25;;;;;;;1.77;0.50;;;16.20;99.90;;;;;;5032652;28;20284;-80
2022/09/25 11:13:54;;;;;;;3.25;0.77;;;16.10;99.90;;;;;;5033954;28;20582;-80
2022/09/25 11:16:46;;;;;;;2.88;0.70;;;16.00;99.90;;;;;;5034410;28;20209;-80
2022/09/25 11:19:14;;;;;;;1.35;0.50;;;15.80;99.90;;;;;;5033931;28;20624;-84
2022/09/25 11:21:56;;;;;;;3.30;0.65;;;15.70;99.90;;;;;;5033790;28;20231;-80
2022/09/25 11:24:31;;;;;;;1.40;0.60;;;15.60;99.90;;;;;;5032857;28;20265;-81
2022/09/25 11:27:07;;;;;;;1.35;0.68;;;15.60;99.90;;;;;;5033450;28;20191;-82
2022/09/25 11:29:43;;;;;;;1.10;0.70;;;15.60;99.90;;;;;;5034668;28;20204;-83
2022/09/25 11:32:20;;;;;;;2.47;0.60;;;15.50;99.90;;;;;;5024453;28;20191;-81
2022/09/25 11:35:18;;;;;;;1.70;0.70;;;15.50;99.90;;;;;;5030531;28;20199;-80
2022/09/25 11:37:56;;;;;;;1.80;0.80;;;15.50;99.90;;;;;;5030777;28;20207;-83
2022/09/25 11:43:25;;;;;;;1.85;0.77;;;15.60;99.90;;;;;;5025396;28;20653;-79
2022/09/25 11:45:57;;;;;;;3.13;0.82;;;15.60;99.90;;;;;;5030593;28;20194;-81
2022/09/25 11:48:33;;;;;;;2.70;0.70;;;15.80;99.90;;;;;;5027402;28;20564;-81
2022/09/25 11:51:10;;;;;;;3.00;1.15;;;15.90;99.90;;;;;;5033307;28;20340;-79
2022/09/25 11:53:44;;;;;;;4.45;0.98;;;16.00;99.90;;;;;;5030551;28;20206;-79
2022/09/25 11:56:26;;;;;;;3.83;0.70;;;16.10;99.90;;;;;;5030869;28;20659;-80
2022/09/25 11:59:10;;;;;;;1.70;0.70;;;16.30;99.90;;;;;;5032869;28;20203;-80
2022/09/25 12:01:44;;;;;;;2.97;0.80;;;16.40;99.90;;;;;;5032996;28;20221;-79
2022/09/25 12:04:44;;;;;;;1.08;0.47;;;16.40;99.90;;;;;;5032825;28;20528;-80
2022/09/25 12:07:34;;;;;;;1.70;0.70;;;16.30;99.90;;;;;;5032555;28;20282;-80
2022/09/25 12:10:13;;;;;;;1.02;0.50;;;16.40;99.90;;;;;;5031726;28;20775;-82
2022/09/25 12:12:49;;;;;;;2.00;0.60;;;16.50;99.90;;;;;;5032628;28;20654;-80
2022/09/25 12:15:26;;;;;;;2.83;0.68;;;16.50;99.90;;;;;;5032216;28;20206;-80
2022/09/25 12:18:02;;;;;;;3.65;0.75;;;16.60;99.90;;;;;;5032086;28;20203;-82
2022/09/25 12:20:38;;;;;;;2.13;0.63;;;16.60;99.90;;;;;;5032640;28;20654;-78
2022/09/25 12:23:17;;;;;;;1.55;0.50;;;16.70;99.90;;;;;;5031971;28;20245;-80
2022/09/25 12:25:59;;;;;;;2.47;0.60;;;16.80;99.90;;;;;;5034560;28;20611;-84
2022/09/25 12:28:32;;;;;;;2.22;0.77;;;16.90;99.90;;;;;;5038173;28;20226;-78
2022/09/25 12:31:09;;;;;;;2.50;0.70;;;17.00;99.90;;;;;;5031543;28;20755;-77
2022/09/25 12:33:44;;;;;;;2.05;0.80;;;17.00;99.90;;;;;;5031997;28;20194;-79
2022/09/25 12:36:16;;;;;;;2.97;0.60;;;17.10;99.90;;;;;;5030978;28;20260;-77
2022/09/25 12:38:54;;;;;;;2.78;0.73;;;17.20;99.90;;;;;;5031645;28;20297;-77
2022/09/25 12:41:29;;;;;;;1.73;0.75;;;17.20;99.90;;;;;;5031929;28;20206;-77
2022/09/25 12:44:01;;;;;;;4.47;0.57;;;17.40;99.90;;;;;;5012756;28;20202;-77
2022/09/25 12:46:33;;;;;;;3.38;0.65;;;17.30;99.90;;;;;;5011799;28;20210;-80
2022/09/25 12:49:06;;;;;;;2.90;0.77;;;17.20;98.00;;;;;;5012388;28;20195;-79
2022/09/25 12:51:40;;;;;;;1.35;0.60;;;16.90;58.50;;;;;;5011560;28;20199;-78
2022/09/25 12:54:16;;;;;;;1.92;0.70;;;16.90;99.90;;;;;;5012670;28;20664;-78
2022/09/25 12:56:50;;;;;;;1.65;0.55;;;17.00;99.90;;;;;;5014857;28;20241;-79
2022/09/25 12:59:23;;;;;;;4.03;0.63;;;17.10;99.90;;;;;;5016901;28;20246;-85
2022/09/25 13:02:00;;;;;;;3.47;0.60;;;17.00;99.90;;;;;;5018613;28;20972;-83
2022/09/25 13:04:40;;;;;;;1.25;0.70;;;16.90;79.70;;;;;;5017785;28;20277;-82
2022/09/25 13:07:17;;;;;;;4.25;0.77;;;16.80;89.10;;;;;;5017719;28;20231;-83
2022/09/25 13:09:46;;;;;;;3.67;0.57;;;16.90;96.40;;;;;;5017452;28;20229;-82
2022/09/25 13:12:24;;;;;;;1.42;0.65;;;16.70;53.70;;;;;;5032575;28;20246;-81
2022/09/25 13:14:56;;;;;;;3.30;0.80;;;16.70;91.20;;;;;;5032219;28;20514;-80
2022/09/25 13:17:23;;;;;;;2.65;0.77;;;16.70;79.70;;;;;;5015780;28;20203;-80
2022/09/25 13:19:50;;;;;;;1.35;0.60;;;16.60;56.10;;;;;;5015382;28;20205;-80
2022/09/25 13:22:23;;;;;;;0.82;0.50;;;16.60;64.20;;;;;;5014870;28;20474;-79
2022/09/25 13:24:55;;;;;;;3.38;0.70;;;16.50;82.30;;;;;;5030205;28;20242;-78
2022/09/25 13:27:25;;;;;;;3.15;0.65;;;16.60;99.90;;;;;;5034442;28;20551;-78